Time;durP1;ratioP1;P1;durP2;ratioP2;P2;SDS_P1;SDS_P2;PMS_P1;PMS_P2;Temp;Humidity;BMP_temperature;BMP_pressure;BME280_temperature;BME280_humidity;BME280_pressure;Samples;Min_cycle;Max_cycle;Signal;HPM_P1;HPM_P2
2023/05/01 00:00:03;;;;;;;11.75;7.63;;;13.90;99.90;;;;;;5037555;28;20409;-68
2023/05/01 00:02:29;;;;;;;10.23;7.95;;;13.90;99.90;;;;;;5038844;28;20445;-68
2023/05/01 00:04:55;;;;;;;13.52;8.75;;;13.80;99.90;;;;;;5033201;28;20032;-68
2023/05/01 00:07:21;;;;;;;9.90;7.80;;;13.80;99.90;;;;;;5034120;28;20048;-68
2023/05/01 00:09:47;;;;;;;15.30;8.05;;;13.80;99.90;;;;;;5037383;28;20071;-68
2023/05/01 00:12:13;;;;;;;14.05;7.60;;;13.80;99.90;;;;;;5038214;28;20026;-68
2023/05/01 00:14:38;;;;;;;8.45;6.82;;;13.80;99.90;;;;;;5033324;28;20072;-68
2023/05/01 00:17:05;;;;;;;11.30;7.97;;;13.80;99.90;;;;;;5034865;28;20068;-68
2023/05/01 00:19:31;;;;;;;11.18;8.40;;;13.90;99.90;;;;;;5038474;28;20045;-68
2023/05/01 00:21:57;;;;;;;10.98;8.93;;;13.90;99.90;;;;;;5036681;28;20437;-68
2023/05/01 00:24:23;;;;;;;12.38;8.25;;;13.90;99.90;;;;;;5038581;28;20056;-69
2023/05/01 00:26:48;;;;;;;12.45;8.35;;;13.90;99.90;;;;;;5037330;28;20017;-69
2023/05/01 00:29:14;;;;;;;12.18;9.25;;;13.70;99.90;;;;;;5038343;28;20072;-68
2023/05/01 00:31:44;;;;;;;11.00;8.52;;;13.60;99.90;;;;;;5037359;28;20057;-69
2023/05/01 00:34:10;;;;;;;16.40;10.00;;;13.50;99.90;;;;;;5037822;28;20022;-69
2023/05/01 00:36:36;;;;;;;23.48;10.77;;;13.50;99.90;;;;;;5031306;28;20036;-68
2023/05/01 00:39:02;;;;;;;20.10;10.80;;;13.40;99.90;;;;;;5037645;28;20083;-68
2023/05/01 00:41:28;;;;;;;16.23;11.77;;;13.30;99.90;;;;;;5036704;28;20073;-68
2023/05/01 00:43:53;;;;;;;16.23;11.60;;;13.30;99.90;;;;;;5038043;28;20021;-69
2023/05/01 00:46:20;;;;;;;18.42;11.82;;;13.30;99.90;;;;;;5036965;28;20021;-69
2023/05/01 00:48:45;;;;;;;15.23;11.63;;;13.30;99.90;;;;;;5037118;28;20026;-68
2023/05/01 00:51:11;;;;;;;19.50;12.30;;;13.30;99.90;;;;;;5036996;28;20101;-68
2023/05/01 00:53:40;;;;;;;21.55;12.75;;;13.30;99.90;;;;;;5038068;28;20030;-68
2023/05/01 00:56:07;;;;;;;17.13;11.50;;;13.30;99.90;;;;;;5037299;28;20024;-69
2023/05/01 00:58:33;;;;;;;18.67;12.30;;;13.30;99.90;;;;;;5026254;28;20581;-69
2023/05/01 01:01:00;;;;;;;18.40;12.07;;;13.30;99.90;;;;;;5034436;28;20410;-69
2023/05/01 01:03:26;;;;;;;15.02;11.82;;;13.30;99.90;;;;;;5030082;28;20041;-69
2023/05/01 01:06:15;;;;;;;16.45;12.45;;;13.40;99.90;;;;;;5036997;28;20040;-69
2023/05/01 01:09:19;;;;;;;13.35;11.85;;;13.40;99.90;;;;;;5034968;28;20045;-69
2023/05/01 01:11:56;;;;;;;20.77;11.10;;;13.40;99.90;;;;;;5035424;28;20032;-69
2023/05/01 01:14:38;;;;;;;14.40;11.43;;;13.40;99.90;;;;;;5037428;28;20034;-69
2023/05/01 01:17:21;;;;;;;20.05;11.48;;;13.40;99.90;;;;;;5036470;28;20049;-68
2023/05/01 01:20:17;;;;;;;18.05;12.65;;;13.40;99.90;;;;;;5036853;28;20061;-68
2023/05/01 01:22:50;;;;;;;22.42;12.88;;;13.40;99.90;;;;;;5028553;28;20405;-69
2023/05/01 01:25:38;;;;;;;18.33;12.88;;;13.40;99.90;;;;;;5035223;28;20071;-69
2023/05/01 01:28:42;;;;;;;18.17;13.75;;;13.40;99.90;;;;;;5035755;28;20053;-69
2023/05/01 01:31:14;;;;;;;15.10;11.77;;;13.40;99.90;;;;;;5037404;28;20393;-68
2023/05/01 01:34:03;;;;;;;17.98;12.48;;;13.40;99.90;;;;;;5034880;28;20030;-69
2023/05/01 01:37:03;;;;;;;16.40;11.75;;;13.40;99.90;;;;;;5037269;28;20053;-69
2023/05/01 01:39:35;;;;;;;16.55;11.77;;;13.40;99.90;;;;;;5035265;28;20128;-68
2023/05/01 01:42:08;;;;;;;16.50;11.60;;;13.40;99.90;;;;;;5036651;28;20025;-68
2023/05/01 01:44:49;;;;;;;22.85;10.27;;;13.40;99.90;;;;;;5034759;28;20029;-68
2023/05/01 01:47:16;;;;;;;15.77;10.63;;;13.40;99.90;;;;;;5035803;28;20053;-68
2023/05/01 01:49:47;;;;;;;18.38;10.25;;;13.40;99.90;;;;;;5036231;28;20482;-69
2023/05/01 01:52:14;;;;;;;16.33;11.55;;;13.40;99.90;;;;;;5035975;28;20108;-69
2023/05/01 01:54:47;;;;;;;16.23;9.80;;;13.40;99.90;;;;;;5035298;28;20490;-68
2023/05/01 01:57:17;;;;;;;13.68;10.30;;;13.40;99.90;;;;;;5028162;28;20033;-69
2023/05/01 01:59:44;;;;;;;11.18;9.82;;;13.40;99.90;;;;;;5036702;28;20025;-69
2023/05/01 02:02:11;;;;;;;13.88;10.52;;;13.40;99.90;;;;;;5035483;28;20404;-69
2023/05/01 02:04:38;;;;;;;15.05;9.13;;;13.40;99.90;;;;;;5027783;28;20053;-69
2023/05/01 02:07:05;;;;;;;15.18;9.48;;;13.40;99.90;;;;;;5036913;28;20022;-69
2023/05/01 02:09:33;;;;;;;17.08;8.82;;;13.40;99.90;;;;;;5036666;28;20029;-69
2023/05/01 02:12:01;;;;;;;9.23;7.15;;;13.40;99.90;;;;;;5035373;28;20026;-69
2023/05/01 02:14:28;;;;;;;10.82;7.60;;;13.30;99.90;;;;;;5036683;28;20029;-69
2023/05/01 02:16:56;;;;;;;17.60;9.10;;;13.30;99.90;;;;;;5036302;28;20072;-69
2023/05/01 02:19:23;;;;;;;18.30;7.78;;;13.30;99.90;;;;;;5030013;28;20038;-68
2023/05/01 02:21:50;;;;;;;12.13;8.48;;;13.30;99.90;;;;;;5035397;28;20025;-68
2023/05/01 02:24:18;;;;;;;13.48;7.68;;;13.30;99.90;;;;;;5036685;28;20033;-68
2023/05/01 02:26:50;;;;;;;9.95;7.90;;;13.30;99.90;;;;;;5035954;28;20045;-69
2023/05/01 02:29:16;;;;;;;10.50;7.18;;;13.20;99.90;;;;;;5036786;28;20029;-68
2023/05/01 02:31:42;;;;;;;12.60;7.53;;;13.20;99.90;;;;;;5036379;28;20512;-69
2023/05/01 02:34:08;;;;;;;11.10;6.72;;;13.20;99.90;;;;;;5036617;28;20026;-68
2023/05/01 02:36:34;;;;;;;9.38;6.65;;;13.20;99.90;;;;;;5034698;28;20059;-68
2023/05/01 02:39:00;;;;;;;10.98;6.95;;;13.10;99.90;;;;;;5036664;28;20053;-68
2023/05/01 02:41:27;;;;;;;9.60;6.22;;;13.10;99.90;;;;;;5034848;28;20517;-68
2023/05/01 02:43:59;;;;;;;8.45;5.75;;;13.10;99.90;;;;;;5036505;28;20449;-68
2023/05/01 02:46:26;;;;;;;9.63;6.10;;;13.10;99.90;;;;;;5035823;28;20430;-68
2023/05/01 02:48:53;;;;;;;7.75;5.57;;;13.10;99.90;;;;;;5035444;28;20029;-68
2023/05/01 02:51:19;;;;;;;6.45;5.80;;;13.10;99.90;;;;;;5036192;28;20029;-68
2023/05/01 02:53:45;;;;;;;6.90;5.82;;;13.10;99.90;;;;;;5035482;28;20034;-68
2023/05/01 02:56:11;;;;;;;8.77;6.20;;;13.10;99.90;;;;;;5036007;28;20105;-68
2023/05/01 02:58:37;;;;;;;6.95;5.10;;;13.10;99.90;;;;;;5036276;28;20057;-69
2023/05/01 03:01:04;;;;;;;7.85;5.47;;;13.00;99.90;;;;;;5034602;28;20436;-68
2023/05/01 03:03:29;;;;;;;14.50;6.20;;;13.00;99.90;;;;;;5035492;28;20022;-69
2023/05/01 03:05:56;;;;;;;7.43;5.28;;;13.00;99.90;;;;;;5035061;28;20385;-68
2023/05/01 03:08:22;;;;;;;5.70;5.07;;;13.00;99.90;;;;;;5039554;28;20104;-68
2023/05/01 03:10:47;;;;;;;7.22;5.68;;;12.90;99.90;;;;;;5039625;28;20052;-69
2023/05/01 03:13:13;;;;;;;10.65;5.63;;;12.90;99.90;;;;;;5032348;28;20053;-68
2023/05/01 03:15:39;;;;;;;8.10;5.40;;;12.90;99.90;;;;;;5039750;28;20028;-68
2023/05/01 03:18:05;;;;;;;10.35;5.63;;;12.90;99.90;;;;;;5038949;28;20124;-68
2023/05/01 03:20:31;;;;;;;7.55;5.45;;;12.80;99.90;;;;;;5039095;28;20029;-68
2023/05/01 03:22:58;;;;;;;7.57;5.45;;;12.90;99.90;;;;;;5039867;28;20022;-68
2023/05/01 03:25:24;;;;;;;6.88;4.30;;;12.90;99.90;;;;;;5039444;28;20048;-68
2023/05/01 03:27:50;;;;;;;7.20;5.32;;;12.90;99.90;;;;;;5038169;28;20029;-68
2023/05/01 03:30:16;;;;;;;9.93;5.22;;;12.90;99.90;;;;;;5039309;28;20093;-67
2023/05/01 03:32:42;;;;;;;12.18;5.65;;;12.90;99.90;;;;;;5039501;28;20030;-68
2023/05/01 03:35:08;;;;;;;9.48;5.32;;;12.90;99.90;;;;;;5038003;28;20033;-68
2023/05/01 03:37:34;;;;;;;5.70;5.05;;;12.80;99.90;;;;;;5039633;28;20033;-68
2023/05/01 03:40:00;;;;;;;5.35;4.85;;;12.80;99.90;;;;;;5039191;28;20063;-68
2023/05/01 03:42:25;;;;;;;7.65;5.13;;;12.80;99.90;;;;;;5039074;28;20029;-67
2023/05/01 03:44:51;;;;;;;6.18;4.75;;;12.80;99.90;;;;;;5039325;28;20022;-68
2023/05/01 03:47:18;;;;;;;8.57;4.97;;;12.80;99.90;;;;;;5039073;28;20398;-68
2023/05/01 03:49:44;;;;;;;7.75;4.93;;;12.80;99.90;;;;;;5038683;28;20060;-68
2023/05/01 03:52:11;;;;;;;6.30;4.70;;;12.80;99.90;;;;;;5039206;28;20053;-68
2023/05/01 03:54:37;;;;;;;5.88;4.70;;;12.80;99.90;;;;;;5036268;28;20512;-68
2023/05/01 03:57:03;;;;;;;7.50;5.15;;;12.70;99.90;;;;;;5038874;28;20026;-68
2023/05/01 03:59:29;;;;;;;5.82;5.07;;;12.70;99.90;;;;;;5030129;28;20040;-68
2023/05/01 04:01:55;;;;;;;5.85;4.35;;;12.80;99.90;;;;;;5038983;28;20021;-69
2023/05/01 04:04:20;;;;;;;12.55;4.47;;;12.80;99.90;;;;;;5036881;28;20026;-68
2023/05/01 04:06:48;;;;;;;5.63;4.47;;;12.80;99.90;;;;;;5035728;28;20554;-68
2023/05/01 04:09:14;;;;;;;9.15;4.93;;;12.80;99.90;;;;;;5038835;28;20037;-68
2023/05/01 04:11:40;;;;;;;6.80;4.35;;;12.80;99.90;;;;;;5038495;28;20032;-68
2023/05/01 04:14:06;;;;;;;7.50;4.53;;;12.80;99.90;;;;;;5037622;28;20034;-68
2023/05/01 04:16:32;;;;;;;6.57;4.55;;;12.90;99.90;;;;;;5034960;28;20401;-69
2023/05/01 04:18:57;;;;;;;6.70;4.88;;;12.90;99.90;;;;;;5036937;28;20033;-69
2023/05/01 04:21:23;;;;;;;8.85;4.53;;;12.90;99.90;;;;;;5038091;28;20033;-68
2023/05/01 04:23:48;;;;;;;6.25;4.30;;;12.90;99.90;;;;;;5038501;28;20052;-68
2023/05/01 04:26:15;;;;;;;5.30;4.03;;;12.90;99.90;;;;;;5038022;28;20024;-68
2023/05/01 04:28:40;;;;;;;4.80;4.30;;;12.90;99.90;;;;;;5038401;28;20026;-68
2023/05/01 04:31:06;;;;;;;8.60;4.30;;;12.90;99.90;;;;;;5036184;28;20049;-68
2023/05/01 04:33:32;;;;;;;6.63;4.75;;;12.90;99.90;;;;;;5034490;28;20025;-68
2023/05/01 04:35:57;;;;;;;5.35;3.58;;;12.90;99.90;;;;;;5038196;28;20023;-68
2023/05/01 04:38:23;;;;;;;9.90;4.65;;;12.80;99.90;;;;;;5038230;28;20064;-68
2023/05/01 04:40:49;;;;;;;7.88;3.95;;;12.90;99.90;;;;;;5038070;28;20108;-68
2023/05/01 04:43:15;;;;;;;5.15;3.50;;;12.90;99.90;;;;;;5038105;28;20022;-68
2023/05/01 04:45:40;;;;;;;6.55;3.80;;;12.90;99.90;;;;;;5038145;28;20051;-68
2023/05/01 04:48:06;;;;;;;6.75;4.28;;;12.90;99.90;;;;;;5034847;28;20506;-68
2023/05/01 04:50:32;;;;;;;4.72;3.78;;;12.90;99.90;;;;;;5037722;28;20089;-68
2023/05/01 04:52:58;;;;;;;7.28;4.68;;;12.90;99.90;;;;;;5036557;28;20021;-68
2023/05/01 04:55:23;;;;;;;8.50;4.60;;;12.90;99.90;;;;;;5030767;28;20027;-68
2023/05/01 04:57:49;;;;;;;6.53;4.00;;;12.90;99.90;;;;;;5037716;28;20108;-68
2023/05/01 05:00:17;;;;;;;4.18;3.78;;;12.90;99.90;;;;;;5033645;28;20489;-68
2023/05/01 05:02:44;;;;;;;6.38;3.60;;;12.90;99.90;;;;;;5037482;28;20060;-68
2023/05/01 05:05:10;;;;;;;6.38;3.60;;;12.90;99.90;;;;;;5028319;28;20005;-68
2023/05/01 05:07:36;;;;;;;4.05;3.65;;;12.90;99.90;;;;;;5033785;28;20434;-68
2023/05/01 05:10:01;;;;;;;5.10;3.42;;;12.90;99.90;;;;;;5038012;28;20018;-68
2023/05/01 05:12:27;;;;;;;5.68;3.75;;;12.90;99.90;;;;;;5037246;28;20030;-68
2023/05/01 05:14:53;;;;;;;6.32;3.85;;;13.00;99.90;;;;;;5036597;28;20075;-68
2023/05/01 05:17:18;;;;;;;5.72;3.03;;;12.90;99.90;;;;;;5037045;28;20060;-68
2023/05/01 05:19:44;;;;;;;4.07;3.40;;;12.90;99.90;;;;;;5037452;28;20049;-68
2023/05/01 05:22:11;;;;;;;4.80;2.90;;;12.90;99.90;;;;;;5034636;28;20119;-68
2023/05/01 05:24:37;;;;;;;5.95;3.33;;;12.90;99.90;;;;;;5037733;28;20021;-68
2023/05/01 05:27:05;;;;;;;6.20;3.55;;;12.90;99.90;;;;;;5035657;28;20109;-68
2023/05/01 05:29:31;;;;;;;4.10;2.60;;;13.00;99.90;;;;;;5037556;28;20478;-68
2023/05/01 05:31:58;;;;;;;6.82;2.72;;;12.90;99.90;;;;;;5037509;28;20025;-68
2023/05/01 05:34:24;;;;;;;4.72;2.40;;;13.00;99.90;;;;;;5035957;28;20029;-68
2023/05/01 05:36:49;;;;;;;4.30;2.45;;;12.90;99.90;;;;;;5036089;28;20394;-68
2023/05/01 05:39:15;;;;;;;2.40;2.17;;;13.00;99.90;;;;;;5037370;28;20092;-68
2023/05/01 05:41:41;;;;;;;6.15;2.40;;;13.00;99.90;;;;;;5036798;28;20112;-68
2023/05/01 05:44:06;;;;;;;3.17;1.90;;;13.00;99.90;;;;;;5037316;28;20484;-67
2023/05/01 05:46:32;;;;;;;3.13;2.55;;;13.00;99.90;;;;;;5036703;28;20555;-68
2023/05/01 05:48:58;;;;;;;8.48;2.55;;;13.00;99.90;;;;;;5036355;28;20509;-68
2023/05/01 05:51:23;;;;;;;3.15;2.25;;;13.00;99.90;;;;;;5036868;28;21207;-68
2023/05/01 05:53:49;;;;;;;2.22;1.98;;;12.90;99.90;;;;;;5037200;28;20028;-69
2023/05/01 05:56:15;;;;;;;6.38;2.05;;;13.00;99.90;;;;;;5029409;28;20036;-68
2023/05/01 05:58:40;;;;;;;2.90;2.05;;;13.00;99.90;;;;;;5037249;28;20026;-68
2023/05/01 06:01:08;;;;;;;3.88;2.25;;;13.00;99.90;;;;;;5031004;28;20108;-68
2023/05/01 06:03:34;;;;;;;4.35;2.28;;;13.00;99.90;;;;;;5034087;28;20056;-68
2023/05/01 06:06:01;;;;;;;4.57;2.00;;;13.00;99.90;;;;;;5035331;28;20021;-68
2023/05/01 06:08:26;;;;;;;3.28;1.83;;;12.90;99.90;;;;;;5036841;28;20017;-68
2023/05/01 06:10:52;;;;;;;2.15;1.95;;;12.90;99.90;;;;;;5035071;28;20032;-68
2023/05/01 06:13:18;;;;;;;5.07;2.03;;;13.00;99.90;;;;;;5037035;28;20056;-68
2023/05/01 06:15:44;;;;;;;2.20;2.00;;;12.90;99.90;;;;;;5026917;28;20034;-68
2023/05/01 06:18:10;;;;;;;2.00;1.80;;;12.90;99.90;;;;;;5036371;28;20045;-68
2023/05/01 06:20:36;;;;;;;2.30;2.10;;;13.00;99.90;;;;;;5036456;28;20057;-68
2023/05/01 06:23:01;;;;;;;5.00;2.38;;;12.90;99.90;;;;;;5036878;28;20552;-68
2023/05/01 06:25:27;;;;;;;3.08;2.10;;;12.90;99.90;;;;;;5036579;28;20021;-68
2023/05/01 06:27:53;;;;;;;2.25;1.80;;;13.00;99.90;;;;;;5036591;28;20032;-68
2023/05/01 06:30:18;;;;;;;2.28;2.08;;;12.90;99.90;;;;;;5036500;28;20060;-68
2023/05/01 06:32:45;;;;;;;4.53;1.80;;;13.00;99.90;;;;;;5025963;28;20030;-68
2023/05/01 06:35:11;;;;;;;2.00;1.80;;;13.00;99.90;;;;;;5034812;28;20017;-68
2023/05/01 06:37:37;;;;;;;5.65;1.90;;;13.10;99.90;;;;;;5037980;28;20022;-68
2023/05/01 06:40:05;;;;;;;2.80;1.80;;;13.10;99.90;;;;;;5039785;28;20536;-68
2023/05/01 06:42:31;;;;;;;2.67;1.60;;;13.10;99.90;;;;;;5039090;28;20052;-68
2023/05/01 06:44:56;;;;;;;3.97;1.77;;;13.10;99.90;;;;;;5039484;28;20017;-68
2023/05/01 06:47:22;;;;;;;3.25;1.73;;;13.20;99.90;;;;;;5039111;28;20027;-68
2023/05/01 06:49:47;;;;;;;4.15;1.80;;;13.20;99.90;;;;;;5039803;28;20108;-69
2023/05/01 06:52:13;;;;;;;4.25;1.70;;;13.20;99.90;;;;;;5040342;28;20033;-68
2023/05/01 06:54:39;;;;;;;1.80;1.70;;;13.20;99.90;;;;;;5040206;28;20033;-68
2023/05/01 06:57:04;;;;;;;1.77;1.65;;;13.30;99.90;;;;;;5040149;28;20026;-68
2023/05/01 06:59:30;;;;;;;3.95;2.00;;;13.50;99.90;;;;;;5037570;28;20057;-68
2023/05/01 07:01:55;;;;;;;5.43;1.85;;;13.60;99.90;;;;;;5036785;28;20093;-68
2023/05/01 07:04:22;;;;;;;2.08;1.88;;;13.70;99.90;;;;;;5033833;28;20037;-69
2023/05/01 07:06:48;;;;;;;2.25;1.60;;;13.80;99.90;;;;;;5040064;28;20028;-68
2023/05/01 07:09:14;;;;;;;2.65;2.10;;;13.80;99.90;;;;;;5039817;28;20053;-68
2023/05/01 07:11:41;;;;;;;3.92;1.80;;;13.70;99.90;;;;;;5037293;28;20116;-68
2023/05/01 07:14:07;;;;;;;2.22;2.03;;;13.60;99.90;;;;;;5047784;28;20028;-68
2023/05/01 07:16:33;;;;;;;2.80;1.95;;;13.50;99.90;;;;;;5039736;28;20413;-68
2023/05/01 07:18:59;;;;;;;2.55;1.95;;;13.50;99.90;;;;;;5039535;28;20048;-69
2023/05/01 07:21:24;;;;;;;2.80;2.00;;;13.50;99.90;;;;;;5038617;28;20021;-69
2023/05/01 07:23:50;;;;;;;3.60;3.00;;;13.50;99.90;;;;;;5039557;28;20026;-68
2023/05/01 07:26:16;;;;;;;2.83;2.15;;;13.50;99.90;;;;;;5031179;28;20036;-68
2023/05/01 07:28:42;;;;;;;3.05;2.05;;;13.50;99.90;;;;;;5039403;28;20033;-68
2023/05/01 07:31:10;;;;;;;2.20;1.80;;;13.50;99.90;;;;;;5039608;28;20421;-68
2023/05/01 07:33:36;;;;;;;3.28;1.80;;;13.60;99.90;;;;;;5038470;28;20485;-68
2023/05/01 07:36:03;;;;;;;5.38;2.15;;;13.70;99.90;;;;;;5037187;28;20049;-68
2023/05/01 07:38:29;;;;;;;3.05;1.92;;;13.80;99.90;;;;;;5037930;28;20120;-68
2023/05/01 07:40:55;;;;;;;5.10;2.13;;;13.80;99.90;;;;;;5037963;28;20029;-69
2023/05/01 07:43:22;;;;;;;4.07;1.70;;;13.90;99.90;;;;;;5039279;28;20053;-68
2023/05/01 07:46:00;;;;;;;2.72;1.70;;;14.10;99.90;;;;;;5037990;28;20101;-68
2023/05/01 07:48:27;;;;;;;3.42;2.38;;;14.20;99.90;;;;;;5034757;28;20051;-69
2023/05/01 07:50:53;;;;;;;2.50;2.00;;;14.40;99.90;;;;;;5038949;28;20022;-68
2023/05/01 07:53:21;;;;;;;2.45;1.67;;;14.40;99.90;;;;;;5038825;28;20029;-69
2023/05/01 07:55:47;;;;;;;4.63;1.90;;;14.40;99.90;;;;;;5038927;28;20124;-67
2023/05/01 07:58:13;;;;;;;1.70;1.40;;;14.40;99.90;;;;;;5039043;28;20030;-68
2023/05/01 08:00:39;;;;;;;2.65;1.33;;;14.20;99.90;;;;;;5038122;28;20549;-68
2023/05/01 08:03:04;;;;;;;3.50;1.80;;;14.10;99.90;;;;;;5026181;28;20064;-68
2023/05/01 08:05:30;;;;;;;1.50;1.40;;;14.00;99.90;;;;;;5038343;28;20030;-67
2023/05/01 08:07:57;;;;;;;5.05;1.67;;;14.00;99.90;;;;;;5036050;28;20040;-68
2023/05/01 08:10:22;;;;;;;3.08;1.80;;;14.00;99.90;;;;;;5034141;28;20105;-68
2023/05/01 08:12:48;;;;;;;2.28;1.30;;;14.00;99.90;;;;;;5035111;28;20049;-68
2023/05/01 08:15:14;;;;;;;3.80;1.38;;;14.20;99.90;;;;;;5034271;28;20025;-69
2023/05/01 08:17:40;;;;;;;4.70;1.67;;;14.30;99.90;;;;;;5037212;28;20073;-68
2023/05/01 08:20:06;;;;;;;2.50;1.50;;;14.40;99.90;;;;;;5036446;28;20026;-67
2023/05/01 08:22:32;;;;;;;3.42;1.40;;;14.50;99.90;;;;;;5036937;28;20094;-68
2023/05/01 08:24:58;;;;;;;5.38;2.17;;;14.70;99.90;;;;;;5036628;28;20100;-68
2023/05/01 08:27:23;;;;;;;1.88;1.48;;;14.90;99.90;;;;;;5035812;28;20033;-69
2023/05/01 08:29:49;;;;;;;1.50;1.40;;;14.90;99.90;;;;;;5032520;28;20025;-69
2023/05/01 08:32:17;;;;;;;2.15;1.38;;;14.90;99.90;;;;;;5034061;28;20026;-67
2023/05/01 08:34:43;;;;;;;1.98;1.50;;;15.00;99.90;;;;;;5035513;28;20502;-68
2023/05/01 08:37:08;;;;;;;1.50;1.38;;;15.00;99.90;;;;;;5033606;28;20091;-68
2023/05/01 08:39:34;;;;;;;1.55;1.45;;;15.00;99.90;;;;;;5039280;28;20429;-68
2023/05/01 08:42:02;;;;;;;6.22;1.70;;;14.90;99.90;;;;;;5034828;28;20615;-68
2023/05/01 08:44:29;;;;;;;2.50;1.50;;;14.90;99.90;;;;;;5035319;28;20033;-68
2023/05/01 08:47:14;;;;;;;4.15;1.70;;;14.90;99.90;;;;;;5037002;28;20060;-68
2023/05/01 08:49:43;;;;;;;6.82;1.50;;;15.00;99.90;;;;;;5048915;28;20026;-68
2023/05/01 08:52:11;;;;;;;1.67;1.57;;;15.00;99.90;;;;;;5031805;28;20087;-68
2023/05/01 08:54:47;;;;;;;3.75;1.77;;;15.10;99.90;;;;;;5034009;28;20664;-68
2023/05/01 08:57:13;;;;;;;4.15;1.70;;;15.20;99.90;;;;;;5035633;28;20517;-69
2023/05/01 08:59:39;;;;;;;2.20;1.60;;;15.20;99.90;;;;;;5033011;28;20056;-68
2023/05/01 09:02:07;;;;;;;1.70;1.60;;;15.40;99.90;;;;;;5033219;28;20524;-68
2023/05/01 09:04:37;;;;;;;2.05;1.45;;;15.60;99.90;;;;;;5034267;28;20029;-69
2023/05/01 09:07:03;;;;;;;2.42;1.83;;;15.70;99.90;;;;;;5033990;28;20111;-68
2023/05/01 09:09:30;;;;;;;2.67;1.55;;;15.70;99.90;;;;;;5035973;28;20025;-69
2023/05/01 09:12:06;;;;;;;1.73;1.60;;;15.80;99.90;;;;;;5035201;28;20025;-68
2023/05/01 09:14:32;;;;;;;1.75;1.20;;;15.80;99.90;;;;;;5035405;28;20541;-68
2023/05/01 09:16:58;;;;;;;1.27;1.17;;;15.70;99.90;;;;;;5033081;28;20053;-68
2023/05/01 09:19:25;;;;;;;2.67;1.50;;;15.70;99.90;;;;;;5034582;28;20392;-69
2023/05/01 09:21:52;;;;;;;1.65;1.30;;;15.70;99.90;;;;;;5035222;28;20081;-69
2023/05/01 09:24:17;;;;;;;2.28;1.58;;;15.80;99.90;;;;;;5035613;28;22179;-68
2023/05/01 09:26:43;;;;;;;1.42;1.20;;;16.00;99.90;;;;;;5030353;28;20013;-71
2023/05/01 09:29:09;;;;;;;1.40;1.30;;;15.90;99.90;;;;;;5031931;28;20029;-69
2023/05/01 09:31:35;;;;;;;1.67;1.50;;;15.60;99.90;;;;;;5030290;28;20033;-69
2023/05/01 09:34:02;;;;;;;1.20;1.10;;;15.40;99.90;;;;;;5033145;28;20117;-70
2023/05/01 09:36:31;;;;;;;1.15;1.10;;;15.30;99.90;;;;;;5030157;28;20029;-69
2023/05/01 09:38:59;;;;;;;1.38;1.20;;;15.40;99.90;;;;;;5035119;28;20029;-70
2023/05/01 09:41:25;;;;;;;1.55;1.30;;;15.50;99.90;;;;;;5034799;28;20033;-69
2023/05/01 09:43:56;;;;;;;1.58;1.40;;;15.50;99.90;;;;;;5034716;28;20565;-69
2023/05/01 09:46:23;;;;;;;1.40;1.30;;;15.50;99.90;;;;;;5033688;28;20375;-69
2023/05/01 09:49:00;;;;;;;1.13;1.02;;;15.40;99.90;;;;;;5034395;28;20029;-68
2023/05/01 09:51:27;;;;;;;1.10;1.00;;;15.20;99.90;;;;;;5031150;28;20037;-69
2023/05/01 09:53:58;;;;;;;2.40;1.40;;;15.40;99.90;;;;;;5034245;28;20091;-69
2023/05/01 09:56:26;;;;;;;1.27;1.17;;;15.60;99.90;;;;;;5033989;28;20048;-69
2023/05/01 09:58:53;;;;;;;1.45;1.27;;;15.70;99.90;;;;;;5032727;28;20053;-69
2023/05/01 10:01:40;;;;;;;2.00;1.40;;;15.70;99.90;;;;;;5034306;28;20112;-69
2023/05/01 10:04:07;;;;;;;1.60;1.30;;;15.60;99.90;;;;;;5035212;28;20029;-69
2023/05/01 10:06:33;;;;;;;2.47;1.55;;;15.60;99.90;;;;;;5034404;28;20017;-69
2023/05/01 10:08:58;;;;;;;1.42;1.17;;;15.50;99.90;;;;;;5035326;28;20045;-69
2023/05/01 10:11:25;;;;;;;2.35;1.55;;;15.60;99.90;;;;;;5034165;28;20108;-69
2023/05/01 10:14:09;;;;;;;1.67;1.55;;;15.90;99.90;;;;;;5036682;28;20034;-71
2023/05/01 10:16:37;;;;;;;1.65;1.25;;;16.10;99.90;;;;;;5039279;28;20060;-69
2023/05/01 10:19:04;;;;;;;2.00;1.55;;;16.10;99.90;;;;;;5038638;28;20036;-68
2023/05/01 10:21:34;;;;;;;2.78;1.58;;;16.20;99.90;;;;;;5038475;28;20032;-70
2023/05/01 10:24:04;;;;;;;2.33;1.90;;;16.40;99.90;;;;;;5038547;28;20017;-69
2023/05/01 10:26:32;;;;;;;3.38;1.40;;;16.60;99.90;;;;;;5036774;28;20025;-69
2023/05/01 10:29:00;;;;;;;2.95;1.40;;;16.70;99.90;;;;;;5038501;28;20068;-69
2023/05/01 10:31:26;;;;;;;2.00;1.38;;;17.00;99.90;;;;;;5037756;28;20029;-69
2023/05/01 10:33:54;;;;;;;2.20;1.58;;;16.90;99.90;;;;;;5037330;28;20057;-69
2023/05/01 10:36:45;;;;;;;2.05;1.70;;;16.70;99.90;;;;;;5034998;28;20056;-69
2023/05/01 10:39:33;;;;;;;1.60;1.40;;;16.70;99.90;;;;;;5037670;28;20029;-69
2023/05/01 10:42:13;;;;;;;1.75;1.33;;;16.80;99.90;;;;;;5031236;28;20063;-69
2023/05/01 10:44:39;;;;;;;1.50;1.30;;;17.00;99.90;;;;;;5038905;28;20022;-69
2023/05/01 10:47:24;;;;;;;1.33;1.10;;;16.80;99.90;;;;;;5036033;28;20028;-69
2023/05/01 10:50:14;;;;;;;2.67;1.30;;;16.80;99.90;;;;;;5031078;28;20068;-68
2023/05/01 10:53:14;;;;;;;1.25;1.10;;;16.90;99.90;;;;;;5034013;28;20021;-69
2023/05/01 10:55:49;;;;;;;1.92;1.25;;;17.00;99.90;;;;;;5037934;28;20175;-69
2023/05/01 10:58:36;;;;;;;1.30;1.20;;;17.10;99.90;;;;;;5032201;28;20029;-69
2023/05/01 11:01:27;;;;;;;1.88;1.13;;;17.10;99.90;;;;;;5036139;28;20623;-70
2023/05/01 11:03:56;;;;;;;2.45;1.23;;;17.10;99.90;;;;;;5037920;28;20022;-70
2023/05/01 11:06:23;;;;;;;2.37;1.80;;;17.00;99.90;;;;;;5039462;28;20552;-70
2023/05/01 11:08:48;;;;;;;2.03;1.40;;;17.30;99.90;;;;;;5040041;28;20029;-69
2023/05/01 11:11:20;;;;;;;1.63;1.20;;;17.70;99.90;;;;;;5030292;28;20030;-69
2023/05/01 11:14:09;;;;;;;1.50;1.40;;;17.90;99.90;;;;;;5034146;28;20414;-70
2023/05/01 11:16:38;;;;;;;1.55;1.20;;;18.00;99.90;;;;;;5031356;28;20045;-71
2023/05/01 11:19:04;;;;;;;1.50;1.15;;;18.10;99.90;;;;;;5037526;28;20032;-70
2023/05/01 11:21:34;;;;;;;2.83;1.30;;;18.10;99.90;;;;;;5037832;28;20025;-70
2023/05/01 11:24:00;;;;;;;1.17;1.03;;;18.10;99.90;;;;;;5037085;28;20025;-69
2023/05/01 11:26:27;;;;;;;1.55;1.30;;;18.10;99.90;;;;;;5037736;28;20032;-69
2023/05/01 11:28:56;;;;;;;1.30;1.20;;;18.10;99.90;;;;;;5035162;28;20453;-70
2023/05/01 11:31:21;;;;;;;2.05;1.33;;;17.80;99.90;;;;;;5037169;28;20072;-69
2023/05/01 11:33:47;;;;;;;1.63;1.20;;;17.80;99.90;;;;;;5036716;28;20040;-68
2023/05/01 11:36:13;;;;;;;1.35;1.20;;;17.60;99.90;;;;;;5036864;28;20362;-70
2023/05/01 11:38:57;;;;;;;2.40;1.10;;;17.50;99.90;;;;;;5035977;28;20052;-69
2023/05/01 11:41:24;;;;;;;4.55;1.20;;;17.20;99.90;;;;;;5034104;28;20543;-69
2023/05/01 11:43:50;;;;;;;5.10;1.55;;;16.50;99.90;;;;;;5032862;28;20028;-68
2023/05/01 11:46:26;;;;;;;2.58;1.52;;;15.80;99.90;;;;;;5032926;28;20038;-69
2023/05/01 11:48:55;;;;;;;1.63;1.52;;;15.40;99.90;;;;;;5032296;28;20032;-68
2023/05/01 11:51:22;;;;;;;1.50;1.25;;;15.30;99.90;;;;;;5036652;28;20768;-69
2023/05/01 11:54:04;;;;;;;1.83;1.45;;;15.30;99.90;;;;;;5037784;28;20465;-68
2023/05/01 11:56:30;;;;;;;2.13;1.50;;;15.50;99.90;;;;;;5036549;28;20029;-69
2023/05/01 11:58:58;;;;;;;2.65;1.63;;;15.60;99.90;;;;;;5036191;28;20444;-68
2023/05/01 12:01:34;;;;;;;1.80;1.50;;;15.90;99.90;;;;;;5034976;28;20101;-69
2023/05/01 12:04:04;;;;;;;3.60;1.50;;;16.10;99.90;;;;;;5036162;28;20024;-68
2023/05/01 12:06:44;;;;;;;1.00;1.00;;;16.50;99.90;;;;;;5033701;28;20018;-69
2023/05/01 12:09:23;;;;;;;2.17;1.67;;;16.80;99.90;;;;;;5036561;28;20021;-70
2023/05/01 12:11:51;;;;;;;3.10;1.77;;;17.00;99.90;;;;;;5031478;28;20025;-70
2023/05/01 12:14:17;;;;;;;1.70;1.40;;;17.10;99.90;;;;;;5037196;28;20083;-68
2023/05/01 12:16:45;;;;;;;2.55;1.42;;;17.20;99.90;;;;;;5021278;28;20053;-69
2023/05/01 12:19:13;;;;;;;2.20;1.30;;;17.20;99.90;;;;;;5033878;28;20063;-69
2023/05/01 12:21:39;;;;;;;1.63;1.10;;;17.30;99.90;;;;;;5033590;28;20040;-69
2023/05/01 12:24:17;;;;;;;3.08;1.45;;;17.40;99.90;;;;;;5035510;28;20017;-69
2023/05/01 12:26:44;;;;;;;2.00;1.30;;;17.40;99.90;;;;;;5036587;28;20021;-69
2023/05/01 12:29:10;;;;;;;2.67;1.35;;;17.20;99.90;;;;;;5036993;28;20079;-68
2023/05/01 12:31:37;;;;;;;2.75;1.30;;;16.90;99.90;;;;;;5018928;28;20034;-69
2023/05/01 12:34:05;;;;;;;2.72;1.20;;;16.90;99.90;;;;;;5026564;28;20030;-68
2023/05/01 12:36:33;;;;;;;5.78;1.23;;;17.20;99.90;;;;;;5034616;28;20030;-69
2023/05/01 12:39:06;;;;;;;2.30;1.50;;;17.50;99.90;;;;;;5035082;28;20124;-69
2023/05/01 12:41:48;;;;;;;1.55;1.17;;;17.70;99.90;;;;;;5034236;28;20474;-69
2023/05/01 12:44:23;;;;;;;1.35;1.10;;;17.50;99.90;;;;;;5034129;28;20128;-69
2023/05/01 12:46:58;;;;;;;1.65;1.10;;;17.80;99.90;;;;;;5034690;28;20096;-69
2023/05/01 12:49:25;;;;;;;2.10;1.25;;;17.90;99.90;;;;;;5035488;28;20498;-68